Time;durP1;ratioP1;P1;durP2;ratioP2;P2;SDS_P1;SDS_P2;PMS_P1;PMS_P2;Temp;Humidity;BMP_temperature;BMP_pressure;BME280_temperature;BME280_humidity;BME280_pressure;Samples;Min_cycle;Max_cycle;Signal;HPM_P1;HPM_P2
2021/12/17 00:04:38;;;;;;;52.97;23.43;;;;;;;;;;5052195;28;20426;-56
2021/12/17 00:07:05;;;;;;;56.83;22.90;;;;;;;;;;5052254;28;20407;-58
2021/12/17 00:09:31;;;;;;;49.10;23.27;;;;;;;;;;5051910;28;20404;-54
2021/12/17 00:11:57;;;;;;;50.07;22.87;;;;;;;;;;5051914;28;20422;-57
2021/12/17 00:14:29;;;;;;;43.93;19.73;;;;;;;;;;5051682;28;20467;-67
2021/12/17 00:16:56;;;;;;;44.47;21.10;;;;;;;;;;5051931;28;20403;-58
2021/12/17 00:19:46;;;;;;;47.57;20.97;;;;;;;;;;5051506;28;20525;-55
2021/12/17 00:49:21;;;;;;;46.03;20.30;;;;;;;;;;5055917;28;20439;-55
2021/12/17 00:51:58;;;;;;;42.60;20.00;;;;;;;;;;5055862;28;20416;-55
2021/12/17 00:54:31;;;;;;;41.70;20.10;;;;;;;;;;5055580;28;20574;-62
2021/12/17 00:56:58;;;;;;;41.17;19.53;;;;;;;;;;5055499;28;20465;-51
2021/12/17 00:59:25;;;;;;;44.53;19.60;;;;;;;;;;5055634;28;20412;-56
2021/12/17 01:01:52;;;;;;;43.43;18.83;;;;;;;;;;5054475;28;20437;-57
2021/12/17 01:04:18;;;;;;;41.40;21.50;;;;;;;;;;5055447;28;20411;-58
2021/12/17 01:06:44;;;;;;;38.90;19.10;;;;;;;;;;5055407;28;20421;-52
2021/12/17 01:09:12;;;;;;;46.80;21.00;;;;;;;;;;5055377;28;20850;-56
2021/12/17 01:11:39;;;;;;;47.67;20.77;;;;;;;;;;5055443;28;20435;-58
2021/12/17 01:14:05;;;;;;;45.73;20.80;;;;;;;;;;5055033;28;20463;-58
2021/12/17 01:16:31;;;;;;;41.80;19.60;;;;;;;;;;5055187;28;20460;-55
2021/12/17 01:19:13;;;;;;;39.43;18.43;;;;;;;;;;5055092;28;20407;-56
2021/12/17 01:21:57;;;;;;;41.70;19.80;;;;;;;;;;5055371;28;20431;-54
2021/12/17 01:35:24;;;;;;;40.27;19.33;;;;;;;;;;5054938;28;20461;-56
2021/12/17 01:42:49;;;;;;;36.63;19.07;;;;;;;;;;5055022;28;20412;-60
2021/12/17 01:45:15;;;;;;;38.20;18.37;;;;;;;;;;5054572;28;20416;-53
2021/12/17 01:47:41;;;;;;;40.63;18.90;;;;;;;;;;5054853;28;20408;-56
2021/12/17 02:00:56;;;;;;;37.10;17.70;;;;;;;;;;5054630;28;20418;-57
2021/12/17 02:03:23;;;;;;;37.03;18.13;;;;;;;;;;5054320;28;20450;-56
2021/12/17 02:05:49;;;;;;;38.17;18.80;;;;;;;;;;5054674;28;20427;-58
2021/12/17 02:08:15;;;;;;;36.83;17.87;;;;;;;;;;5054835;28;20400;-56
2021/12/17 02:22:01;;;;;;;38.83;17.10;;;;;;;;;;5054809;28;20515;-59
2021/12/17 02:32:42;;;;;;;32.90;17.10;;;;;;;;;;5054654;28;20855;-51
2021/12/17 02:37:40;;;;;;;40.47;19.63;;;;;;;;;;5054495;28;20415;-52
2021/12/17 02:45:31;;;;;;;36.90;18.57;;;;;;;;;;5054467;28;20418;-53
2021/12/17 02:45:34;;;;;;;32.30;17.50;;;;;;;;;;5054022;28;20400;-51
2021/12/17 02:48:11;;;;;;;41.27;18.90;;;;;;;;;;5053910;28;20415;-50
2021/12/17 02:50:43;;;;;;;37.77;17.63;;;;;;;;;;5053961;28;20490;-51
2021/12/17 02:53:09;;;;;;;35.73;17.30;;;;;;;;;;5053596;28;20466;-51
2021/12/17 02:55:39;;;;;;;39.87;18.13;;;;;;;;;;5053577;28;20408;-55
2021/12/17 02:58:06;;;;;;;35.97;17.50;;;;;;;;;;5053874;28;20404;-53
2021/12/17 03:00:33;;;;;;;41.33;18.20;;;;;;;;;;5053691;28;20419;-53
2021/12/17 03:03:01;;;;;;;36.40;18.83;;;;;;;;;;5051755;28;20442;-52
2021/12/17 03:05:27;;;;;;;35.17;15.67;;;;;;;;;;5053562;28;20412;-51
2021/12/17 03:07:54;;;;;;;40.50;18.20;;;;;;;;;;5053547;28;20791;-54
2021/12/17 03:10:20;;;;;;;38.17;17.77;;;;;;;;;;5053560;28;20477;-53
2021/12/17 03:12:50;;;;;;;41.10;17.90;;;;;;;;;;5053373;28;20474;-56
2021/12/17 03:15:26;;;;;;;37.97;18.03;;;;;;;;;;5053404;28;20974;-54
2021/12/17 03:23:28;;;;;;;37.40;17.40;;;;;;;;;;5053635;28;20398;-53
2021/12/17 03:25:55;;;;;;;39.47;18.20;;;;;;;;;;5053176;28;20419;-52
2021/12/17 03:28:21;;;;;;;37.53;17.23;;;;;;;;;;5053475;28;20408;-53
2021/12/17 03:30:48;;;;;;;41.27;17.47;;;;;;;;;;5053144;28;20420;-53
2021/12/17 03:33:14;;;;;;;41.23;18.50;;;;;;;;;;5053466;28;20894;-52
2021/12/17 03:35:40;;;;;;;37.37;17.17;;;;;;;;;;5053491;28;20792;-52
2021/12/17 03:38:06;;;;;;;36.60;17.60;;;;;;;;;;5052955;28;20573;-54
2021/12/17 03:40:33;;;;;;;36.50;17.80;;;;;;;;;;5052957;28;20407;-52
2021/12/17 03:43:11;;;;;;;33.57;17.20;;;;;;;;;;5053046;28;20412;-53
2021/12/17 03:45:37;;;;;;;37.33;18.10;;;;;;;;;;5053154;28;20407;-52
2021/12/17 03:48:03;;;;;;;38.80;17.60;;;;;;;;;;5052875;28;20439;-53
2021/12/17 03:50:33;;;;;;;44.73;19.47;;;;;;;;;;5052711;28;20408;-54
2021/12/17 03:52:59;;;;;;;38.30;18.60;;;;;;;;;;5052706;28;20451;-52
2021/12/17 03:55:25;;;;;;;34.70;18.47;;;;;;;;;;5051494;28;20431;-55
2021/12/17 03:57:51;;;;;;;40.10;18.97;;;;;;;;;;5052669;28;20408;-52
2021/12/17 04:00:17;;;;;;;38.00;17.10;;;;;;;;;;5052780;28;20412;-51
2021/12/17 04:02:44;;;;;;;45.40;17.80;;;;;;;;;;5052717;28;20419;-52
2021/12/17 04:05:10;;;;;;;35.23;16.30;;;;;;;;;;5053233;28;20764;-55
2021/12/17 04:07:38;;;;;;;35.70;19.17;;;;;;;;;;5052680;28;20411;-54
2021/12/17 04:10:05;;;;;;;37.33;18.57;;;;;;;;;;5052556;28;20443;-52
2021/12/17 04:12:49;;;;;;;43.80;18.77;;;;;;;;;;5052343;28;20407;-56
2021/12/17 04:15:16;;;;;;;39.87;18.20;;;;;;;;;;5052762;28;20457;-52
2021/12/17 04:17:46;;;;;;;41.43;18.40;;;;;;;;;;5053002;28;20402;-53
2021/12/17 04:20:12;;;;;;;42.43;18.90;;;;;;;;;;5052523;28;20467;-54
2021/12/17 04:22:38;;;;;;;40.07;18.50;;;;;;;;;;5052196;28;20919;-53
2021/12/17 04:25:04;;;;;;;35.37;17.77;;;;;;;;;;5052463;28;20395;-52
2021/12/17 04:27:30;;;;;;;37.70;18.37;;;;;;;;;;5052279;28;20868;-52
2021/12/17 04:29:57;;;;;;;35.93;18.40;;;;;;;;;;5052702;28;20408;-56
2021/12/17 04:32:24;;;;;;;36.80;17.60;;;;;;;;;;5052572;28;20420;-56
2021/12/17 04:34:50;;;;;;;37.83;18.13;;;;;;;;;;5052467;28;20442;-55
2021/12/17 04:37:16;;;;;;;41.90;19.27;;;;;;;;;;5052216;28;20498;-53
2021/12/17 04:39:42;;;;;;;46.70;18.20;;;;;;;;;;5052283;28;20479;-56
2021/12/17 04:42:18;;;;;;;33.93;17.87;;;;;;;;;;5052233;28;20443;-58
2021/12/17 04:44:52;;;;;;;36.30;18.73;;;;;;;;;;5052231;28;20395;-54
2021/12/17 04:57:48;;;;;;;37.87;18.03;;;;;;;;;;5052361;28;20418;-58
2021/12/17 05:00:16;;;;;;;38.00;18.90;;;;;;;;;;5052457;28;20420;-64
2021/12/17 05:02:46;;;;;;;39.03;19.50;;;;;;;;;;5052233;28;20411;-59
2021/12/17 05:05:12;;;;;;;40.63;17.90;;;;;;;;;;5052328;28;20412;-55
2021/12/17 05:07:45;;;;;;;49.73;20.17;;;;;;;;;;5052012;28;20507;-55
2021/12/17 05:10:28;;;;;;;42.43;19.00;;;;;;;;;;5052152;28;20404;-60
2021/12/17 05:18:31;;;;;;;43.50;18.80;;;;;;;;;;5052305;28;20754;-53
2021/12/17 05:21:03;;;;;;;36.10;17.97;;;;;;;;;;5051524;28;20463;-53
2021/12/17 05:23:31;;;;;;;40.10;18.00;;;;;;;;;;5051971;28;20407;-61
2021/12/17 05:25:58;;;;;;;53.70;20.50;;;;;;;;;;5051386;28;20880;-52
2021/12/17 05:28:24;;;;;;;40.43;19.10;;;;;;;;;;5055596;28;20408;-61
2021/12/17 05:30:50;;;;;;;40.77;19.50;;;;;;;;;;5055298;28;20415;-53
2021/12/17 05:33:17;;;;;;;51.23;20.20;;;;;;;;;;5055351;28;20463;-57
2021/12/17 05:35:43;;;;;;;41.83;17.20;;;;;;;;;;5055591;28;20404;-53
2021/12/17 05:38:09;;;;;;;39.40;19.47;;;;;;;;;;5055175;28;20412;-53
2021/12/17 05:40:36;;;;;;;36.87;17.30;;;;;;;;;;5055167;28;20418;-51
2021/12/17 05:43:04;;;;;;;45.53;18.80;;;;;;;;;;5055296;28;20450;-52
2021/12/17 05:45:48;;;;;;;46.37;18.90;;;;;;;;;;5055162;28;20396;-51
2021/12/17 05:48:15;;;;;;;43.73;19.83;;;;;;;;;;5055403;28;20813;-53
2021/12/17 05:50:42;;;;;;;37.60;16.27;;;;;;;;;;5054859;28;20412;-54
2021/12/17 05:53:08;;;;;;;38.23;18.90;;;;;;;;;;5054912;28;20520;-52
2021/12/17 05:55:35;;;;;;;43.67;19.27;;;;;;;;;;5054677;28;20461;-52
2021/12/17 05:58:01;;;;;;;49.00;20.20;;;;;;;;;;5054926;28;20419;-52
2021/12/17 06:00:31;;;;;;;49.47;19.03;;;;;;;;;;5054673;28;20404;-51
2021/12/17 06:02:57;;;;;;;58.80;21.47;;;;;;;;;;5054724;28;20422;-52
2021/12/17 06:05:24;;;;;;;44.47;19.70;;;;;;;;;;5054697;28;20764;-52
2021/12/17 06:07:50;;;;;;;40.37;18.33;;;;;;;;;;5054560;28;20819;-52
2021/12/17 06:10:16;;;;;;;44.47;18.83;;;;;;;;;;5054602;28;20411;-51
2021/12/17 06:12:42;;;;;;;42.50;19.13;;;;;;;;;;5054594;28;20464;-53
2021/12/17 06:15:10;;;;;;;48.63;18.27;;;;;;;;;;5054355;28;20424;-50
2021/12/17 06:17:36;;;;;;;46.90;19.67;;;;;;;;;;5053434;28;20557;-53
2021/12/17 06:20:03;;;;;;;46.07;20.30;;;;;;;;;;5054320;28;20474;-52
2021/12/17 06:22:29;;;;;;;47.00;20.50;;;;;;;;;;5054400;28;20504;-52
2021/12/17 06:24:54;;;;;;;42.40;19.47;;;;;;;;;;5054374;28;20963;-52
2021/12/17 06:27:23;;;;;;;38.07;18.90;;;;;;;;;;5054323;28;20473;-55
2021/12/17 06:29:49;;;;;;;47.73;18.97;;;;;;;;;;5054131;28;20404;-60
2021/12/17 06:32:15;;;;;;;37.50;17.80;;;;;;;;;;5054126;28;20418;-56
2021/12/17 06:34:41;;;;;;;43.47;17.47;;;;;;;;;;5054399;28;20471;-55
2021/12/17 06:37:07;;;;;;;38.63;16.77;;;;;;;;;;5053246;28;20408;-52
2021/12/17 06:39:33;;;;;;;40.20;18.70;;;;;;;;;;5053591;28;20408;-53
2021/12/17 06:42:00;;;;;;;42.03;19.00;;;;;;;;;;5053997;28;20415;-53
2021/12/17 06:44:27;;;;;;;40.83;16.83;;;;;;;;;;5053848;28;20463;-53
2021/12/17 06:47:00;;;;;;;41.93;18.07;;;;;;;;;;5054132;28;20550;-53
2021/12/17 06:49:46;;;;;;;39.23;20.27;;;;;;;;;;5053779;28;20413;-52
2021/12/17 07:10:44;;;;;;;41.30;18.77;;;;;;;;;;5053654;28;20544;-53
2021/12/17 07:29:19;;;;;;;39.67;17.93;;;;;;;;;;5053311;28;20407;-55
2021/12/17 07:34:16;;;;;;;45.60;19.10;;;;;;;;;;5052112;28;20841;-54
2021/12/17 07:39:17;;;;;;;41.43;18.00;;;;;;;;;;5051439;28;20764;-53
2021/12/17 07:41:44;;;;;;;37.30;17.17;;;;;;;;;;5053051;28;20400;-54
2021/12/17 07:44:10;;;;;;;43.60;17.50;;;;;;;;;;5052919;28;20403;-53
2021/12/17 07:46:36;;;;;;;37.13;18.10;;;;;;;;;;5052422;28;20400;-55
2021/12/17 07:49:02;;;;;;;33.77;16.67;;;;;;;;;;5051030;28;20414;-54
2021/12/17 07:51:28;;;;;;;44.20;19.97;;;;;;;;;;5050767;28;20411;-52
2021/12/17 07:53:56;;;;;;;49.30;20.73;;;;;;;;;;5050651;28;20475;-54
2021/12/17 07:56:24;;;;;;;43.30;18.60;;;;;;;;;;5052176;28;20483;-55
2021/12/17 07:58:50;;;;;;;38.17;18.00;;;;;;;;;;5051465;28;20511;-55
2021/12/17 08:01:16;;;;;;;40.93;18.73;;;;;;;;;;5051424;28;20501;-53
2021/12/17 08:03:42;;;;;;;42.73;19.53;;;;;;;;;;5052961;28;20889;-54
2021/12/17 08:06:09;;;;;;;42.40;20.10;;;;;;;;;;5051528;28;20451;-53
2021/12/17 08:08:35;;;;;;;42.13;19.40;;;;;;;;;;5051461;28;20419;-62
2021/12/17 08:11:01;;;;;;;36.40;18.00;;;;;;;;;;5051161;28;20425;-58
2021/12/17 08:13:31;;;;;;;35.57;16.67;;;;;;;;;;5052275;28;20498;-56
2021/12/17 08:28:28;;;;;;;34.67;18.03;;;;;;;;;;5052287;28;20404;-57
2021/12/17 08:30:54;;;;;;;34.20;18.30;;;;;;;;;;5052445;28;20402;-57
2021/12/17 08:33:21;;;;;;;33.90;17.73;;;;;;;;;;5050801;28;20493;-59
2021/12/17 08:35:47;;;;;;;34.43;16.43;;;;;;;;;;5052577;28;20487;-56
2021/12/17 08:38:14;;;;;;;33.37;17.90;;;;;;;;;;5052235;28;20509;-56
2021/12/17 08:40:41;;;;;;;34.47;16.00;;;;;;;;;;5052538;28;20415;-57
2021/12/17 08:43:07;;;;;;;31.60;16.60;;;;;;;;;;5052355;28;20424;-57
2021/12/17 08:45:35;;;;;;;35.53;17.90;;;;;;;;;;5052122;28;20447;-56
2021/12/17 08:48:01;;;;;;;31.47;17.77;;;;;;;;;;5052131;28;20412;-56
2021/12/17 08:50:27;;;;;;;31.30;16.63;;;;;;;;;;5051996;28;20422;-53
2021/12/17 08:52:53;;;;;;;33.27;16.57;;;;;;;;;;5052159;28;20451;-54
2021/12/17 08:55:19;;;;;;;28.67;15.77;;;;;;;;;;5052222;28;20430;-57
2021/12/17 08:57:45;;;;;;;31.70;16.00;;;;;;;;;;5052346;28;20411;-58
2021/12/17 09:00:12;;;;;;;29.03;16.23;;;;;;;;;;5052330;28;20738;-53
2021/12/17 09:02:41;;;;;;;27.70;13.93;;;;;;;;;;5055437;28;20760;-54
2021/12/17 09:05:07;;;;;;;33.87;15.97;;;;;;;;;;5055625;28;20460;-56
2021/12/17 09:07:34;;;;;;;30.47;16.57;;;;;;;;;;5054707;28;20750;-52
2021/12/17 09:10:03;;;;;;;35.57;17.57;;;;;;;;;;5055724;28;20978;-55
2021/12/17 09:12:29;;;;;;;30.63;16.40;;;;;;;;;;5054404;28;20415;-55
2021/12/17 09:14:55;;;;;;;31.40;17.10;;;;;;;;;;5055945;28;20430;-54
2021/12/17 09:17:24;;;;;;;31.67;15.50;;;;;;;;;;5055684;28;20812;-54
2021/12/17 09:19:50;;;;;;;28.80;16.10;;;;;;;;;;5055388;28;20529;-56
2021/12/17 09:22:16;;;;;;;29.93;15.77;;;;;;;;;;5055282;28;20419;-59
2021/12/17 09:24:42;;;;;;;30.70;16.13;;;;;;;;;;5055546;28;20487;-55
2021/12/17 09:27:08;;;;;;;29.13;16.43;;;;;;;;;;5055433;28;20929;-53
2021/12/17 09:29:34;;;;;;;33.53;16.20;;;;;;;;;;5054010;28;20493;-54
2021/12/17 09:32:01;;;;;;;31.00;17.20;;;;;;;;;;5055335;28;20418;-51
2021/12/17 09:34:27;;;;;;;31.90;15.60;;;;;;;;;;5055163;28;20474;-54
2021/12/17 09:36:53;;;;;;;31.10;15.90;;;;;;;;;;5055247;28;20413;-56
2021/12/17 09:39:19;;;;;;;33.73;16.10;;;;;;;;;;5053726;28;20931;-53
2021/12/17 09:41:50;;;;;;;35.80;17.20;;;;;;;;;;5055110;28;20420;-53
2021/12/17 09:44:16;;;;;;;26.80;16.70;;;;;;;;;;5054882;28;20439;-56
2021/12/17 09:46:44;;;;;;;28.63;15.73;;;;;;;;;;5055100;28;20404;-53
2021/12/17 09:49:11;;;;;;;28.73;16.50;;;;;;;;;;5055210;28;20415;-53
2021/12/17 09:51:38;;;;;;;31.80;17.27;;;;;;;;;;5054751;28;20968;-58
2021/12/17 09:54:04;;;;;;;25.67;15.43;;;;;;;;;;5054860;28;20518;-53
2021/12/17 09:56:30;;;;;;;29.77;16.50;;;;;;;;;;5053465;28;20780;-56
2021/12/17 09:58:56;;;;;;;32.83;16.70;;;;;;;;;;5054984;28;20909;-56
2021/12/17 10:01:22;;;;;;;25.13;15.43;;;;;;;;;;5054783;28;20407;-55
2021/12/17 10:04:08;;;;;;;31.80;16.97;;;;;;;;;;5054728;28;20502;-56
2021/12/17 10:06:35;;;;;;;29.90;15.20;;;;;;;;;;5054557;28;20399;-55
2021/12/17 10:09:01;;;;;;;27.83;16.30;;;;;;;;;;5054692;28;20420;-55
2021/12/17 10:11:27;;;;;;;33.60;15.77;;;;;;;;;;5054388;28;20510;-58
2021/12/17 10:13:52;;;;;;;29.77;16.80;;;;;;;;;;5054854;28;20471;-56
2021/12/17 10:16:20;;;;;;;26.60;15.70;;;;;;;;;;5054429;28;20849;-59
2021/12/17 10:18:47;;;;;;;24.07;14.90;;;;;;;;;;5054862;28;20785;-57
2021/12/17 10:21:21;;;;;;;29.67;16.07;;;;;;;;;;5054181;28;20447;-56
2021/12/17 10:23:47;;;;;;;30.17;16.27;;;;;;;;;;5054301;28;20954;-56
2021/12/17 10:26:14;;;;;;;30.90;16.10;;;;;;;;;;5053040;28;20426;-57
2021/12/17 10:28:53;;;;;;;25.80;15.57;;;;;;;;;;5054269;28;20513;-56
2021/12/17 10:31:20;;;;;;;30.47;16.07;;;;;;;;;;5054147;28;20404;-56
2021/12/17 10:33:52;;;;;;;29.43;15.47;;;;;;;;;;5053962;28;20924;-57
2021/12/17 10:36:29;;;;;;;22.87;12.03;;;;;;;;;;5054219;28;20431;-57
2021/12/17 10:38:55;;;;;;;28.40;15.60;;;;;;;;;;5053889;28;20399;-56
2021/12/17 10:41:26;;;;;;;28.87;15.53;;;;;;;;;;5053892;28;20411;-56
2021/12/17 10:43:58;;;;;;;30.00;15.67;;;;;;;;;;5054151;28;20408;-56
2021/12/17 10:46:27;;;;;;;44.33;12.47;;;;;;;;;;5053785;28;20912;-57
2021/12/17 10:49:01;;;;;;;29.17;15.53;;;;;;;;;;5052533;28;20437;-56
2021/12/17 10:54:04;;;;;;;25.63;15.40;;;;;;;;;;5053651;28;20486;-55
2021/12/17 10:56:32;;;;;;;26.10;15.40;;;;;;;;;;5053280;28;20415;-58
2021/12/17 10:59:01;;;;;;;24.77;15.13;;;;;;;;;;5052789;28;21168;-58
2021/12/17 11:01:29;;;;;;;26.50;14.60;;;;;;;;;;5052638;28;20852;-55
2021/12/17 11:04:03;;;;;;;27.97;14.20;;;;;;;;;;5052735;28;20947;-54
2021/12/17 11:06:41;;;;;;;28.97;15.57;;;;;;;;;;5052728;28;20411;-57
2021/12/17 11:09:07;;;;;;;29.63;14.93;;;;;;;;;;5052665;28;20407;-62
2021/12/17 11:11:33;;;;;;;27.20;14.90;;;;;;;;;;5052336;28;20824;-58
2021/12/17 11:14:00;;;;;;;28.93;14.00;;;;;;;;;;5052552;28;20525;-55
2021/12/17 11:16:27;;;;;;;35.00;17.37;;;;;;;;;;5052402;28;20908;-56
2021/12/17 11:18:53;;;;;;;31.43;17.03;;;;;;;;;;5052446;28;20420;-53
2021/12/17 11:21:20;;;;;;;28.93;16.30;;;;;;;;;;5052029;28;20821;-54
2021/12/17 11:23:46;;;;;;;28.03;16.07;;;;;;;;;;5051484;28;20448;-52
2021/12/17 11:26:12;;;;;;;32.77;17.90;;;;;;;;;;5052275;28;20408;-57
2021/12/17 11:28:38;;;;;;;35.20;19.13;;;;;;;;;;5050949;28;20454;-57
2021/12/17 11:31:04;;;;;;;32.40;16.93;;;;;;;;;;5052167;28;20772;-57
2021/12/17 11:33:31;;;;;;;31.30;17.77;;;;;;;;;;5052118;28;20466;-54
2021/12/17 11:35:57;;;;;;;33.87;18.80;;;;;;;;;;5051459;28;20414;-54
2021/12/17 11:38:33;;;;;;;35.87;18.60;;;;;;;;;;5049239;28;20779;-53
2021/12/17 11:41:07;;;;;;;40.73;17.70;;;;;;;;;;5049339;28;20411;-54
2021/12/17 11:43:53;;;;;;;31.60;14.43;;;;;;;;;;5050271;28;20400;-56
2021/12/17 11:46:23;;;;;;;32.93;17.60;;;;;;;;;;5051659;28;20457;-50
2021/12/17 11:48:51;;;;;;;34.13;17.60;;;;;;;;;;5052036;28;20490;-54
2021/12/17 11:51:19;;;;;;;33.00;17.50;;;;;;;;;;5050837;28;20427;-59
2021/12/17 11:53:59;;;;;;;30.53;17.93;;;;;;;;;;5048276;28;20467;-60
2021/12/17 11:56:33;;;;;;;35.87;17.90;;;;;;;;;;5051611;28;20411;-55
2021/12/17 11:58:59;;;;;;;33.00;16.03;;;;;;;;;;5051759;28;20403;-56
2021/12/17 12:01:44;;;;;;;30.80;16.13;;;;;;;;;;5052008;28;20407;-60
2021/12/17 12:04:28;;;;;;;24.17;13.77;;;;;;;;;;5051714;28;20407;-53
2021/12/17 12:07:05;;;;;;;30.93;15.77;;;;;;;;;;5051516;28;20415;-55
2021/12/17 12:09:59;;;;;;;35.50;15.77;;;;;;;;;;5051682;28;20422;-53
2021/12/17 12:12:34;;;;;;;29.47;16.37;;;;;;;;;;5051506;28;20773;-54
2021/12/17 12:15:19;;;;;;;28.63;14.00;;;;;;;;;;5050670;28;20532;-53
2021/12/17 12:17:57;;;;;;;28.10;14.80;;;;;;;;;;5051645;28;20427;-54
2021/12/17 12:20:42;;;;;;;29.50;14.37;;;;;;;;;;5051395;28;20455;-53
2021/12/17 12:23:17;;;;;;;26.53;13.40;;;;;;;;;;5051050;28;20904;-54
2021/12/17 12:25:44;;;;;;;22.67;13.40;;;;;;;;;;5050993;28;20403;-52
2021/12/17 12:28:11;;;;;;;27.03;14.03;;;;;;;;;;5051360;28;20411;-52
2021/12/17 12:30:38;;;;;;;28.67;15.60;;;;;;;;;;5051618;28;20815;-56
2021/12/17 12:33:05;;;;;;;27.73;14.50;;;;;;;;;;5051432;28;20470;-53
2021/12/17 12:35:31;;;;;;;23.60;13.10;;;;;;;;;;5053587;28;20510;-56
2021/12/17 12:38:13;;;;;;;24.90;12.17;;;;;;;;;;5055585;28;20438;-53
2021/12/17 12:40:44;;;;;;;22.17;12.20;;;;;;;;;;5055663;28;20518;-55
2021/12/17 12:43:24;;;;;;;21.30;12.37;;;;;;;;;;5055045;28;20465;-56
2021/12/17 12:45:50;;;;;;;25.00;13.63;;;;;;;;;;5054125;28;20458;-54
2021/12/17 12:48:29;;;;;;;22.33;12.83;;;;;;;;;;5055409;28;20450;-58
2021/12/17 12:51:35;;;;;;;22.00;13.50;;;;;;;;;;5053909;28;20426;-55
2021/12/17 12:54:03;;;;;;;28.20;13.83;;;;;;;;;;4993172;28;20560;-54
2021/12/17 12:56:29;;;;;;;22.97;13.30;;;;;;;;;;4993931;28;20430;-58
2021/12/17 12:58:55;;;;;;;24.13;12.43;;;;;;;;;;5024501;28;20428;-53
2021/12/17 13:01:21;;;;;;;24.93;14.43;;;;;;;;;;5055093;28;20746;-58
2021/12/17 13:03:48;;;;;;;24.53;14.00;;;;;;;;;;5054108;28;20431;-55
2021/12/17 13:06:17;;;;;;;21.33;12.47;;;;;;;;;;5069165;28;20442;-54
2021/12/17 13:08:43;;;;;;;23.33;13.60;;;;;;;;;;5058661;28;20412;-55
2021/12/17 13:11:09;;;;;;;24.67;13.50;;;;;;;;;;5057175;28;20412;-54
2021/12/17 13:13:53;;;;;;;23.50;14.20;;;;;;;;;;5075213;28;20540;-56
2021/12/17 13:16:24;;;;;;;29.90;13.97;;;;;;;;;;5073953;28;20456;-58
2021/12/17 13:24:35;;;;;;;27.53;13.60;;;;;;;;;;5040230;28;20427;-61
2021/12/17 13:27:06;;;;;;;22.70;13.30;;;;;;;;;;5050404;28;20434;-53
2021/12/17 13:29:34;;;;;;;23.03;13.13;;;;;;;;;;5061783;28;20419;-55
2021/12/17 13:32:05;;;;;;;24.47;13.87;;;;;;;;;;5058680;28;20514;-54
2021/12/17 13:34:34;;;;;;;27.37;15.10;;;;;;;;;;5053820;28;20570;-54
2021/12/17 13:37:09;;;;;;;23.10;14.40;;;;;;;;;;5053744;28;20509;-53
2021/12/17 13:39:40;;;;;;;28.73;16.17;;;;;;;;;;5053267;28;20407;-57
2021/12/17 13:42:07;;;;;;;22.97;13.70;;;;;;;;;;5054347;28;20764;-58
2021/12/17 13:44:35;;;;;;;26.03;14.53;;;;;;;;;;5054928;28;20495;-58
2021/12/17 13:47:09;;;;;;;20.50;11.10;;;;;;;;;;5054345;28;20419;-54
2021/12/17 13:49:35;;;;;;;15.27;9.70;;;;;;;;;;5054323;28;20418;-56
2021/12/17 13:52:01;;;;;;;18.47;11.60;;;;;;;;;;5054486;28;20419;-57
2021/12/17 13:54:27;;;;;;;14.47;10.23;;;;;;;;;;5054965;28;20486;-56
2021/12/17 13:56:57;;;;;;;18.87;10.40;;;;;;;;;;5054536;28;20530;-62
2021/12/17 13:59:33;;;;;;;15.27;9.70;;;;;;;;;;5054332;28;20427;-57
2021/12/17 14:01:59;;;;;;;16.23;10.60;;;;;;;;;;5054299;28;20415;-62
2021/12/17 14:04:25;;;;;;;16.50;10.23;;;;;;;;;;5054684;28;20410;-53
2021/12/17 14:06:53;;;;;;;14.90;9.60;;;;;;;;;;5053851;28;20408;-56
2021/12/17 14:09:20;;;;;;;15.67;9.43;;;;;;;;;;5053880;28;20841;-59
2021/12/17 14:11:47;;;;;;;17.53;9.60;;;;;;;;;;5053640;28;20416;-60
2021/12/17 14:14:25;;;;;;;19.10;10.60;;;;;;;;;;5053635;28;20474;-57
2021/12/17 14:16:58;;;;;;;17.97;10.87;;;;;;;;;;5053685;28;20936;-53
2021/12/17 14:19:41;;;;;;;16.43;10.70;;;;;;;;;;5054015;28;20903;-51
2021/12/17 14:22:27;;;;;;;19.10;9.50;;;;;;;;;;5053000;28;20431;-52
2021/12/17 14:24:54;;;;;;;13.03;9.60;;;;;;;;;;5054531;28;20422;-54
2021/12/17 14:27:20;;;;;;;15.50;9.20;;;;;;;;;;5053012;28;20424;-52
2021/12/17 14:29:48;;;;;;;14.80;9.87;;;;;;;;;;5054537;28;20805;-55
2021/12/17 14:32:18;;;;;;;17.03;10.93;;;;;;;;;;5054362;28;20416;-54
2021/12/17 14:34:44;;;;;;;17.20;10.27;;;;;;;;;;5054585;28;20874;-53
2021/12/17 14:37:10;;;;;;;16.77;9.77;;;;;;;;;;5054333;28;20415;-53
2021/12/17 14:39:40;;;;;;;14.43;9.17;;;;;;;;;;5054181;28;20396;-53
2021/12/17 14:42:08;;;;;;;10.87;8.50;;;;;;;;;;5053909;28;20423;-56
2021/12/17 14:44:51;;;;;;;13.07;9.10;;;;;;;;;;5054222;28;20388;-57
2021/12/17 14:47:34;;;;;;;12.50;8.30;;;;;;;;;;5054050;28;20450;-53
2021/12/17 15:03:42;;;;;;;17.50;8.13;;;;;;;;;;5052700;28;20473;-57
2021/12/17 15:06:11;;;;;;;13.50;9.43;;;;;;;;;;5052853;28;20415;-56
2021/12/17 15:08:37;;;;;;;9.50;7.90;;;;;;;;;;5051724;28;20499;-55
2021/12/17 15:11:04;;;;;;;12.33;8.20;;;;;;;;;;5052373;28;21401;-57
2021/12/17 15:13:31;;;;;;;13.67;8.10;;;;;;;;;;5052773;28;20510;-59
2021/12/17 15:15:57;;;;;;;12.40;7.97;;;;;;;;;;5053346;28;20419;-53
2021/12/17 15:18:24;;;;;;;16.53;9.90;;;;;;;;;;5053528;28;20407;-53
2021/12/17 15:21:00;;;;;;;8.97;7.90;;;;;;;;;;5109622;27;20595;-55
2021/12/17 15:23:26;;;;;;;11.13;8.07;;;;;;;;;;5109732;28;20412;-57
2021/12/17 15:25:53;;;;;;;9.87;7.93;;;;;;;;;;5110385;28;20470;-56
2021/12/17 15:28:22;;;;;;;13.33;8.43;;;;;;;;;;5109265;28;20920;-54
2021/12/17 15:30:49;;;;;;;14.83;8.60;;;;;;;;;;5110027;28;20434;-56
2021/12/17 15:33:16;;;;;;;14.33;8.40;;;;;;;;;;5108844;28;20412;-56
2021/12/17 15:35:43;;;;;;;9.37;8.07;;;;;;;;;;5110584;28;20470;-55
2021/12/17 15:38:09;;;;;;;11.33;8.20;;;;;;;;;;5109942;28;20403;-56
2021/12/17 15:40:36;;;;;;;9.53;8.00;;;;;;;;;;5125167;28;20556;-55
2021/12/17 15:43:02;;;;;;;14.30;8.27;;;;;;;;;;5125299;28;20788;-55
2021/12/17 15:45:29;;;;;;;12.50;8.90;;;;;;;;;;5109763;28;20965;-57
2021/12/17 15:47:55;;;;;;;10.13;7.53;;;;;;;;;;5109908;28;20492;-52
2021/12/17 15:50:21;;;;;;;16.03;8.97;;;;;;;;;;5109912;28;20467;-58
2021/12/17 15:52:47;;;;;;;9.33;7.63;;;;;;;;;;5109358;28;20514;-51
2021/12/17 15:55:20;;;;;;;9.70;8.20;;;;;;;;;;5109905;28;20447;-55
2021/12/17 15:57:47;;;;;;;19.83;9.17;;;;;;;;;;5109513;28;20929;-55
2021/12/17 16:00:14;;;;;;;10.80;8.77;;;;;;;;;;5109570;28;20844;-55
2021/12/17 16:02:42;;;;;;;15.00;7.80;;;;;;;;;;5109272;28;20405;-59
2021/12/17 16:05:09;;;;;;;8.90;7.80;;;;;;;;;;5109424;28;20810;-57
2021/12/17 16:07:36;;;;;;;11.60;8.33;;;;;;;;;;5109584;28;20415;-57
2021/12/17 16:18:15;;;;;;;8.70;7.67;;;;;;;;;;5109629;28;20412;-58
2021/12/17 16:23:26;;;;;;;9.03;7.70;;;;;;;;;;5109275;28;20401;-58
2021/12/17 16:25:52;;;;;;;10.03;8.50;;;;;;;;;;5109363;28;20417;-59
2021/12/17 16:28:19;;;;;;;11.47;8.50;;;;;;;;;;5108933;28;20587;-55
2021/12/17 16:30:45;;;;;;;9.33;7.33;;;;;;;;;;5103889;28;20464;-55
2021/12/17 16:33:11;;;;;;;9.90;8.07;;;;;;;;;;5095331;28;20732;-55
2021/12/17 16:35:37;;;;;;;12.27;8.10;;;;;;;;;;5095394;28;20460;-55
2021/12/17 16:38:03;;;;;;;12.60;8.60;;;;;;;;;;5095244;28;20402;-55
2021/12/17 16:40:29;;;;;;;12.00;9.03;;;;;;;;;;5094956;28;20480;-54
2021/12/17 16:42:57;;;;;;;11.50;8.70;;;;;;;;;;5094998;28;20530;-57
2021/12/17 16:45:29;;;;;;;11.60;8.93;;;;;;;;;;5095086;28;20921;-56
2021/12/17 16:47:56;;;;;;;14.90;9.30;;;;;;;;;;5095094;28;20413;-59
2021/12/17 16:50:26;;;;;;;20.00;9.20;;;;;;;;;;5095219;28;20767;-54
2021/12/17 16:52:53;;;;;;;15.37;10.13;;;;;;;;;;5080942;28;20785;-55
2021/12/17 16:55:20;;;;;;;12.37;9.57;;;;;;;;;;5074795;28;20414;-53
2021/12/17 16:57:46;;;;;;;14.10;9.80;;;;;;;;;;5074668;28;20415;-56
2021/12/17 17:00:12;;;;;;;14.33;9.43;;;;;;;;;;5074861;28;20466;-55
2021/12/17 17:02:38;;;;;;;19.23;12.57;;;;;;;;;;5074105;28;20771;-60
2021/12/17 17:05:04;;;;;;;12.93;9.67;;;;;;;;;;5074689;28;20414;-57
2021/12/17 17:07:30;;;;;;;17.30;10.60;;;;;;;;;;5074741;28;20803;-55
2021/12/17 17:09:56;;;;;;;14.73;10.10;;;;;;;;;;5073736;28;20506;-57
2021/12/17 17:12:25;;;;;;;12.97;10.00;;;;;;;;;;5074188;28;20407;-54
2021/12/17 17:14:51;;;;;;;16.30;10.70;;;;;;;;;;5074598;28;20794;-55
2021/12/17 17:17:17;;;;;;;16.70;10.50;;;;;;;;;;5074484;28;20509;-59
2021/12/17 17:19:43;;;;;;;19.83;10.57;;;;;;;;;;5074119;28;20569;-54
2021/12/17 17:22:11;;;;;;;15.83;11.43;;;;;;;;;;5074343;28;20880;-55
2021/12/17 17:24:37;;;;;;;19.30;10.30;;;;;;;;;;5073951;28;20943;-59
2021/12/17 17:27:03;;;;;;;14.73;11.00;;;;;;;;;;5074292;28;20441;-55
2021/12/17 17:29:30;;;;;;;14.63;9.47;;;;;;;;;;5072586;28;20487;-56
2021/12/17 17:31:56;;;;;;;20.63;13.27;;;;;;;;;;5071553;28;20415;-60
2021/12/17 17:34:22;;;;;;;19.80;12.77;;;;;;;;;;5071690;28;20410;-56
2021/12/17 17:36:48;;;;;;;19.10;11.50;;;;;;;;;;5071510;28;20506;-57